sensor_id;sensor_type;location;lat;lon;timestamp;P1;durP1;ratioP1;P2;durP2;ratioP2
55601;SDS011;59921;51.332;12.410;2023-03-26T00:00:43;1.33;;;0.85;;
55601;SDS011;59921;51.332;12.410;2023-03-26T00:03:10;1.30;;;0.80;;
55601;SDS011;59921;51.332;12.410;2023-03-26T00:05:39;0.80;;;0.70;;
55601;SDS011;59921;51.332;12.410;2023-03-26T00:08:05;0.93;;;0.82;;
55601;SDS011;59921;51.332;12.410;2023-03-26T00:10:34;1.63;;;1.00;;
55601;SDS011;59921;51.332;12.410;2023-03-26T00:13:02;1.42;;;0.80;;
55601;SDS011;59921;51.332;12.410;2023-03-26T00:15:28;1.30;;;0.80;;
55601;SDS011;59921;51.332;12.410;2023-03-26T00:17:54;0.80;;;0.80;;
55601;SDS011;59921;51.332;12.410;2023-03-26T00:20:20;0.82;;;0.73;;
55601;SDS011;59921;51.332;12.410;2023-03-26T00:22:46;0.95;;;0.80;;
55601;SDS011;59921;51.332;12.410;2023-03-26T00:25:12;1.30;;;0.90;;
55601;SDS011;59921;51.332;12.410;2023-03-26T00:27:39;1.30;;;0.90;;
55601;SDS011;59921;51.332;12.410;2023-03-26T00:30:05;0.98;;;0.80;;
55601;SDS011;59921;51.332;12.410;2023-03-26T00:32:31;0.82;;;0.80;;
55601;SDS011;59921;51.332;12.410;2023-03-26T00:34:57;1.08;;;0.77;;
55601;SDS011;59921;51.332;12.410;2023-03-26T00:37:22;0.60;;;0.60;;
55601;SDS011;59921;51.332;12.410;2023-03-26T00:39:54;0.93;;;0.80;;
55601;SDS011;59921;51.332;12.410;2023-03-26T00:42:29;1.13;;;0.90;;
55601;SDS011;59921;51.332;12.410;2023-03-26T00:44:54;1.08;;;0.60;;
55601;SDS011;59921;51.332;12.410;2023-03-26T00:47:25;0.85;;;0.65;;
55601;SDS011;59921;51.332;12.410;2023-03-26T00:49:52;1.30;;;0.90;;
55601;SDS011;59921;51.332;12.410;2023-03-26T00:52:18;1.30;;;0.80;;
55601;SDS011;59921;51.332;12.410;2023-03-26T00:54:49;0.95;;;0.70;;
55601;SDS011;59921;51.332;12.410;2023-03-26T00:57:16;1.20;;;0.90;;
55601;SDS011;59921;51.332;12.410;2023-03-26T00:59:45;1.13;;;0.80;;
55601;SDS011;59921;51.332;12.410;2023-03-26T01:02:11;0.82;;;0.70;;
55601;SDS011;59921;51.332;12.410;2023-03-26T01:04:42;0.98;;;0.80;;
55601;SDS011;59921;51.332;12.410;2023-03-26T01:07:10;0.93;;;0.80;;
55601;SDS011;59921;51.332;12.410;2023-03-26T01:09:44;0.77;;;0.60;;
55601;SDS011;59921;51.332;12.410;2023-03-26T01:12:14;0.70;;;0.60;;
55601;SDS011;59921;51.332;12.410;2023-03-26T01:14:53;1.00;;;0.80;;
55601;SDS011;59921;51.332;12.410;2023-03-26T01:17:24;0.70;;;0.63;;
55601;SDS011;59921;51.332;12.410;2023-03-26T01:20:06;0.90;;;0.70;;
55601;SDS011;59921;51.332;12.410;2023-03-26T01:22:40;0.85;;;0.70;;
55601;SDS011;59921;51.332;12.410;2023-03-26T01:25:09;0.70;;;0.70;;
55601;SDS011;59921;51.332;12.410;2023-03-26T01:27:52;0.85;;;0.60;;
55601;SDS011;59921;51.332;12.410;2023-03-26T01:30:23;0.85;;;0.70;;
55601;SDS011;59921;51.332;12.410;2023-03-26T01:33:15;0.80;;;0.60;;
55601;SDS011;59921;51.332;12.410;2023-03-26T01:35:49;0.90;;;0.70;;
55601;SDS011;59921;51.332;12.410;2023-03-26T01:38:22;1.27;;;0.70;;
55601;SDS011;59921;51.332;12.410;2023-03-26T01:46:04;0.88;;;0.65;;
55601;SDS011;59921;51.332;12.410;2023-03-26T01:48:34;1.00;;;0.70;;
55601;SDS011;59921;51.332;12.410;2023-03-26T01:51:03;0.80;;;0.60;;
55601;SDS011;59921;51.332;12.410;2023-03-26T01:53:29;0.88;;;0.73;;
55601;SDS011;59921;51.332;12.410;2023-03-26T01:56:04;1.20;;;0.80;;
55601;SDS011;59921;51.332;12.410;2023-03-26T02:07:24;0.85;;;0.63;;
55601;SDS011;59921;51.332;12.410;2023-03-26T02:09:54;1.23;;;0.70;;
55601;SDS011;59921;51.332;12.410;2023-03-26T02:12:24;1.02;;;0.80;;
55601;SDS011;59921;51.332;12.410;2023-03-26T02:14:51;1.10;;;0.80;;
55601;SDS011;59921;51.332;12.410;2023-03-26T02:17:17;0.93;;;0.75;;
55601;SDS011;59921;51.332;12.410;2023-03-26T02:19:43;0.93;;;0.70;;
55601;SDS011;59921;51.332;12.410;2023-03-26T02:22:09;0.80;;;0.60;;
55601;SDS011;59921;51.332;12.410;2023-03-26T02:24:42;0.70;;;0.60;;
55601;SDS011;59921;51.332;12.410;2023-03-26T02:27:08;1.20;;;0.80;;
55601;SDS011;59921;51.332;12.410;2023-03-26T02:29:36;1.13;;;0.70;;
55601;SDS011;59921;51.332;12.410;2023-03-26T02:32:07;0.93;;;0.70;;
55601;SDS011;59921;51.332;12.410;2023-03-26T02:34:37;0.60;;;0.60;;
55601;SDS011;59921;51.332;12.410;2023-03-26T02:37:02;1.02;;;0.70;;
55601;SDS011;59921;51.332;12.410;2023-03-26T02:39:28;0.88;;;0.70;;
55601;SDS011;59921;51.332;12.410;2023-03-26T02:41:53;0.80;;;0.70;;
55601;SDS011;59921;51.332;12.410;2023-03-26T02:44:19;1.27;;;0.70;;
55601;SDS011;59921;51.332;12.410;2023-03-26T02:46:44;1.30;;;0.77;;
55601;SDS011;59921;51.332;12.410;2023-03-26T02:49:10;0.93;;;0.80;;
55601;SDS011;59921;51.332;12.410;2023-03-26T02:51:35;1.10;;;0.80;;
55601;SDS011;59921;51.332;12.410;2023-03-26T02:54:01;1.17;;;0.82;;
55601;SDS011;59921;51.332;12.410;2023-03-26T02:56:27;1.50;;;0.80;;
55601;SDS011;59921;51.332;12.410;2023-03-26T02:58:53;0.75;;;0.70;;
55601;SDS011;59921;51.332;12.410;2023-03-26T03:01:18;1.10;;;0.80;;
55601;SDS011;59921;51.332;12.410;2023-03-26T03:03:44;1.00;;;0.80;;
55601;SDS011;59921;51.332;12.410;2023-03-26T03:06:13;1.17;;;0.77;;
55601;SDS011;59921;51.332;12.410;2023-03-26T03:08:42;1.13;;;0.80;;
55601;SDS011;59921;51.332;12.410;2023-03-26T03:11:19;1.05;;;0.80;;
55601;SDS011;59921;51.332;12.410;2023-03-26T03:13:46;0.90;;;0.65;;
55601;SDS011;59921;51.332;12.410;2023-03-26T03:16:12;1.20;;;0.70;;
55601;SDS011;59921;51.332;12.410;2023-03-26T03:18:37;1.00;;;0.80;;
55601;SDS011;59921;51.332;12.410;2023-03-26T03:21:03;1.00;;;0.70;;
55601;SDS011;59921;51.332;12.410;2023-03-26T03:23:30;0.98;;;0.80;;
55601;SDS011;59921;51.332;12.410;2023-03-26T03:25:56;0.98;;;0.88;;
55601;SDS011;59921;51.332;12.410;2023-03-26T03:28:22;0.98;;;0.70;;
55601;SDS011;59921;51.332;12.410;2023-03-26T03:30:49;1.23;;;0.80;;
55601;SDS011;59921;51.332;12.410;2023-03-26T03:33:18;0.95;;;0.75;;
55601;SDS011;59921;51.332;12.410;2023-03-26T03:35:45;0.90;;;0.80;;
55601;SDS011;59921;51.332;12.410;2023-03-26T03:38:12;0.82;;;0.70;;
55601;SDS011;59921;51.332;12.410;2023-03-26T03:40:38;0.88;;;0.77;;
55601;SDS011;59921;51.332;12.410;2023-03-26T03:43:03;0.80;;;0.80;;
55601;SDS011;59921;51.332;12.410;2023-03-26T03:45:29;1.10;;;0.90;;
55601;SDS011;59921;51.332;12.410;2023-03-26T03:47:54;1.10;;;0.80;;
55601;SDS011;59921;51.332;12.410;2023-03-26T03:50:20;1.23;;;0.75;;
55601;SDS011;59921;51.332;12.410;2023-03-26T03:52:45;1.08;;;0.90;;
55601;SDS011;59921;51.332;12.410;2023-03-26T03:55:11;1.30;;;0.80;;
55601;SDS011;59921;51.332;12.410;2023-03-26T03:57:38;1.33;;;0.80;;
55601;SDS011;59921;51.332;12.410;2023-03-26T04:00:04;1.45;;;0.90;;
55601;SDS011;59921;51.332;12.410;2023-03-26T04:02:33;1.02;;;0.70;;
55601;SDS011;59921;51.332;12.410;2023-03-26T04:04:59;1.25;;;0.85;;
55601;SDS011;59921;51.332;12.410;2023-03-26T04:07:26;0.98;;;0.73;;
55601;SDS011;59921;51.332;12.410;2023-03-26T04:09:55;1.08;;;0.80;;
55601;SDS011;59921;51.332;12.410;2023-03-26T04:12:21;0.93;;;0.75;;
55601;SDS011;59921;51.332;12.410;2023-03-26T04:14:46;1.15;;;0.77;;
55601;SDS011;59921;51.332;12.410;2023-03-26T04:17:12;1.05;;;0.70;;
55601;SDS011;59921;51.332;12.410;2023-03-26T04:19:39;1.00;;;0.90;;
55601;SDS011;59921;51.332;12.410;2023-03-26T04:22:05;0.95;;;0.70;;
55601;SDS011;59921;51.332;12.410;2023-03-26T04:24:31;1.20;;;0.90;;
55601;SDS011;59921;51.332;12.410;2023-03-26T04:27:04;0.70;;;0.70;;
55601;SDS011;59921;51.332;12.410;2023-03-26T04:29:50;0.93;;;0.70;;
55601;SDS011;59921;51.332;12.410;2023-03-26T04:32:25;0.90;;;0.70;;
55601;SDS011;59921;51.332;12.410;2023-03-26T04:34:57;1.13;;;0.80;;
55601;SDS011;59921;51.332;12.410;2023-03-26T04:37:30;1.25;;;0.77;;
55601;SDS011;59921;51.332;12.410;2023-03-26T04:40:04;1.20;;;0.90;;
55601;SDS011;59921;51.332;12.410;2023-03-26T04:42:37;1.00;;;0.90;;
55601;SDS011;59921;51.332;12.410;2023-03-26T04:45:06;1.48;;;0.80;;
55601;SDS011;59921;51.332;12.410;2023-03-26T04:47:32;0.90;;;0.70;;
55601;SDS011;59921;51.332;12.410;2023-03-26T04:50:02;0.88;;;0.70;;
55601;SDS011;59921;51.332;12.410;2023-03-26T04:52:29;1.08;;;0.80;;
55601;SDS011;59921;51.332;12.410;2023-03-26T04:54:54;1.10;;;0.90;;
55601;SDS011;59921;51.332;12.410;2023-03-26T04:57:22;1.02;;;0.70;;
55601;SDS011;59921;51.332;12.410;2023-03-26T04:59:49;1.13;;;0.85;;
55601;SDS011;59921;51.332;12.410;2023-03-26T05:02:15;1.17;;;0.82;;
55601;SDS011;59921;51.332;12.410;2023-03-26T05:04:42;0.90;;;0.68;;
55601;SDS011;59921;51.332;12.410;2023-03-26T05:07:10;0.93;;;0.70;;
55601;SDS011;59921;51.332;12.410;2023-03-26T05:09:40;1.15;;;0.80;;
55601;SDS011;59921;51.332;12.410;2023-03-26T05:12:05;0.85;;;0.60;;
55601;SDS011;59921;51.332;12.410;2023-03-26T05:14:31;1.00;;;0.63;;
55601;SDS011;59921;51.332;12.410;2023-03-26T05:16:56;1.50;;;0.80;;
55601;SDS011;59921;51.332;12.410;2023-03-26T05:19:22;1.13;;;0.73;;
55601;SDS011;59921;51.332;12.410;2023-03-26T05:21:48;0.95;;;0.70;;
55601;SDS011;59921;51.332;12.410;2023-03-26T05:24:14;0.90;;;0.60;;
55601;SDS011;59921;51.332;12.410;2023-03-26T05:26:39;0.70;;;0.65;;
55601;SDS011;59921;51.332;12.410;2023-03-26T05:29:05;0.80;;;0.60;;
55601;SDS011;59921;51.332;12.410;2023-03-26T05:31:31;1.20;;;0.70;;
55601;SDS011;59921;51.332;12.410;2023-03-26T05:33:57;0.90;;;0.70;;
55601;SDS011;59921;51.332;12.410;2023-03-26T05:36:24;0.98;;;0.70;;
55601;SDS011;59921;51.332;12.410;2023-03-26T05:38:52;1.20;;;0.88;;
55601;SDS011;59921;51.332;12.410;2023-03-26T05:41:17;1.45;;;0.98;;
55601;SDS011;59921;51.332;12.410;2023-03-26T05:43:43;1.35;;;0.85;;
55601;SDS011;59921;51.332;12.410;2023-03-26T05:46:11;1.70;;;0.80;;
55601;SDS011;59921;51.332;12.410;2023-03-26T05:48:37;0.90;;;0.70;;
55601;SDS011;59921;51.332;12.410;2023-03-26T05:51:03;0.88;;;0.70;;
55601;SDS011;59921;51.332;12.410;2023-03-26T05:53:29;1.08;;;0.73;;
55601;SDS011;59921;51.332;12.410;2023-03-26T05:55:56;1.00;;;0.77;;
55601;SDS011;59921;51.332;12.410;2023-03-26T05:58:28;1.13;;;0.70;;
55601;SDS011;59921;51.332;12.410;2023-03-26T06:00:56;0.98;;;0.70;;
55601;SDS011;59921;51.332;12.410;2023-03-26T06:03:30;1.00;;;0.80;;
55601;SDS011;59921;51.332;12.410;2023-03-26T06:05:56;1.23;;;1.00;;
55601;SDS011;59921;51.332;12.410;2023-03-26T06:08:23;1.60;;;0.77;;
55601;SDS011;59921;51.332;12.410;2023-03-26T06:10:50;1.20;;;0.90;;
55601;SDS011;59921;51.332;12.410;2023-03-26T06:13:22;1.27;;;0.80;;
55601;SDS011;59921;51.332;12.410;2023-03-26T06:15:48;0.95;;;0.65;;
55601;SDS011;59921;51.332;12.410;2023-03-26T06:18:13;0.80;;;0.60;;
55601;SDS011;59921;51.332;12.410;2023-03-26T06:20:40;1.13;;;0.73;;
55601;SDS011;59921;51.332;12.410;2023-03-26T06:23:06;0.90;;;0.70;;
55601;SDS011;59921;51.332;12.410;2023-03-26T06:25:31;1.10;;;0.77;;
55601;SDS011;59921;51.332;12.410;2023-03-26T06:27:57;0.90;;;0.70;;
55601;SDS011;59921;51.332;12.410;2023-03-26T06:30:22;1.23;;;0.82;;
55601;SDS011;59921;51.332;12.410;2023-03-26T06:32:48;1.00;;;0.70;;
55601;SDS011;59921;51.332;12.410;2023-03-26T06:35:13;1.02;;;0.75;;
55601;SDS011;59921;51.332;12.410;2023-03-26T06:37:39;0.93;;;0.70;;
55601;SDS011;59921;51.332;12.410;2023-03-26T06:40:06;1.08;;;0.70;;
55601;SDS011;59921;51.332;12.410;2023-03-26T06:42:32;1.00;;;0.73;;
55601;SDS011;59921;51.332;12.410;2023-03-26T06:44:58;1.00;;;0.70;;
55601;SDS011;59921;51.332;12.410;2023-03-26T06:47:23;0.60;;;0.60;;
55601;SDS011;59921;51.332;12.410;2023-03-26T06:49:49;1.05;;;0.80;;
55601;SDS011;59921;51.332;12.410;2023-03-26T06:52:15;1.05;;;0.70;;
55601;SDS011;59921;51.332;12.410;2023-03-26T06:54:40;0.82;;;0.70;;
55601;SDS011;59921;51.332;12.410;2023-03-26T06:57:06;0.95;;;0.70;;
55601;SDS011;59921;51.332;12.410;2023-03-26T06:59:31;1.10;;;0.75;;
55601;SDS011;59921;51.332;12.410;2023-03-26T07:01:57;1.08;;;0.88;;
55601;SDS011;59921;51.332;12.410;2023-03-26T07:04:22;1.08;;;0.75;;
55601;SDS011;59921;51.332;12.410;2023-03-26T07:06:48;1.00;;;0.73;;
55601;SDS011;59921;51.332;12.410;2023-03-26T07:09:13;0.98;;;0.80;;
55601;SDS011;59921;51.332;12.410;2023-03-26T07:11:39;0.95;;;0.73;;
55601;SDS011;59921;51.332;12.410;2023-03-26T07:14:05;1.27;;;0.90;;
55601;SDS011;59921;51.332;12.410;2023-03-26T07:16:30;1.23;;;0.70;;
55601;SDS011;59921;51.332;12.410;2023-03-26T07:18:56;0.75;;;0.57;;
55601;SDS011;59921;51.332;12.410;2023-03-26T07:21:21;0.75;;;0.70;;
55601;SDS011;59921;51.332;12.410;2023-03-26T07:23:47;0.82;;;0.65;;
55601;SDS011;59921;51.332;12.410;2023-03-26T07:29:04;1.10;;;0.80;;
55601;SDS011;59921;51.332;12.410;2023-03-26T07:31:33;1.15;;;0.70;;
55601;SDS011;59921;51.332;12.410;2023-03-26T07:39:32;1.35;;;0.70;;
55601;SDS011;59921;51.332;12.410;2023-03-26T07:42:13;1.15;;;0.70;;
55601;SDS011;59921;51.332;12.410;2023-03-26T07:45:16;1.25;;;0.73;;
55601;SDS011;59921;51.332;12.410;2023-03-26T07:47:42;0.75;;;0.70;;
55601;SDS011;59921;51.332;12.410;2023-03-26T07:50:15;1.15;;;0.80;;
55601;SDS011;59921;51.332;12.410;2023-03-26T07:52:42;1.13;;;0.70;;
55601;SDS011;59921;51.332;12.410;2023-03-26T07:55:11;0.88;;;0.70;;
55601;SDS011;59921;51.332;12.410;2023-03-26T07:58:39;1.05;;;0.80;;
55601;SDS011;59921;51.332;12.410;2023-03-26T08:00:41;0.90;;;0.70;;
55601;SDS011;59921;51.332;12.410;2023-03-26T08:03:19;1.20;;;0.90;;
55601;SDS011;59921;51.332;12.410;2023-03-26T08:05:51;1.13;;;0.80;;
55601;SDS011;59921;51.332;12.410;2023-03-26T08:08:26;0.77;;;0.60;;
55601;SDS011;59921;51.332;12.410;2023-03-26T08:14:14;0.98;;;0.73;;
55601;SDS011;59921;51.332;12.410;2023-03-26T08:16:22;0.90;;;0.80;;
55601;SDS011;59921;51.332;12.410;2023-03-26T08:18:58;1.20;;;0.80;;
55601;SDS011;59921;51.332;12.410;2023-03-26T08:21:46;0.90;;;0.60;;
55601;SDS011;59921;51.332;12.410;2023-03-26T08:24:26;0.90;;;0.73;;
55601;SDS011;59921;51.332;12.410;2023-03-26T08:30:20;1.08;;;0.80;;
55601;SDS011;59921;51.332;12.410;2023-03-26T08:32:54;1.20;;;0.77;;
55601;SDS011;59921;51.332;12.410;2023-03-26T08:35:35;1.10;;;0.70;;
55601;SDS011;59921;51.332;12.410;2023-03-26T08:38:07;1.02;;;0.90;;
55601;SDS011;59921;51.332;12.410;2023-03-26T09:00:00;1.38;;;0.70;;
55601;SDS011;59921;51.332;12.410;2023-03-26T09:05:18;0.95;;;0.80;;
55601;SDS011;59921;51.332;12.410;2023-03-26T09:16:43;1.05;;;0.70;;
55601;SDS011;59921;51.332;12.410;2023-03-26T09:53:26;1.13;;;0.73;;
55601;SDS011;59921;51.332;12.410;2023-03-26T10:00:58;0.95;;;0.60;;
55601;SDS011;59921;51.332;12.410;2023-03-26T10:03:47;1.70;;;0.80;;
55601;SDS011;59921;51.332;12.410;2023-03-26T10:14:40;1.33;;;0.80;;
55601;SDS011;59921;51.332;12.410;2023-03-26T10:26:04;1.58;;;0.75;;
55601;SDS011;59921;51.332;12.410;2023-03-26T10:28:58;1.90;;;1.10;;
55601;SDS011;59921;51.332;12.410;2023-03-26T10:31:41;1.13;;;0.70;;
55601;SDS011;59921;51.332;12.410;2023-03-26T10:36:54;2.10;;;0.80;;
55601;SDS011;59921;51.332;12.410;2023-03-26T10:50:19;1.90;;;0.90;;
55601;SDS011;59921;51.332;12.410;2023-03-26T10:53:12;2.35;;;1.08;;
55601;SDS011;59921;51.332;12.410;2023-03-26T10:56:04;3.15;;;1.35;;
55601;SDS011;59921;51.332;12.410;2023-03-26T10:58:38;2.78;;;1.30;;
55601;SDS011;59921;51.332;12.410;2023-03-26T11:01:09;2.78;;;1.30;;
55601;SDS011;59921;51.332;12.410;2023-03-26T11:03:46;2.25;;;1.23;;
55601;SDS011;59921;51.332;12.410;2023-03-26T11:09:20;2.58;;;1.20;;
55601;SDS011;59921;51.332;12.410;2023-03-26T11:17:04;2.42;;;1.20;;
55601;SDS011;59921;51.332;12.410;2023-03-26T11:22:22;4.13;;;1.48;;
55601;SDS011;59921;51.332;12.410;2023-03-26T11:27:49;2.50;;;1.30;;
55601;SDS011;59921;51.332;12.410;2023-03-26T11:32:47;2.80;;;1.48;;
55601;SDS011;59921;51.332;12.410;2023-03-26T11:35:30;2.83;;;1.50;;
55601;SDS011;59921;51.332;12.410;2023-03-26T11:38:07;2.05;;;1.30;;
55601;SDS011;59921;51.332;12.410;2023-03-26T11:40:55;2.25;;;1.27;;
55601;SDS011;59921;51.332;12.410;2023-03-26T11:43:24;2.45;;;1.30;;
55601;SDS011;59921;51.332;12.410;2023-03-26T11:45:54;4.10;;;1.50;;
55601;SDS011;59921;51.332;12.410;2023-03-26T11:51:04;3.00;;;1.48;;
55601;SDS011;59921;51.332;12.410;2023-03-26T11:53:33;2.57;;;1.50;;
55601;SDS011;59921;51.332;12.410;2023-03-26T11:58:45;2.97;;;1.58;;
55601;SDS011;59921;51.332;12.410;2023-03-26T12:01:17;3.78;;;1.80;;
55601;SDS011;59921;51.332;12.410;2023-03-26T12:04:13;3.05;;;1.90;;
55601;SDS011;59921;51.332;12.410;2023-03-26T12:06:51;3.33;;;1.70;;
55601;SDS011;59921;51.332;12.410;2023-03-26T12:09:20;2.72;;;1.90;;
55601;SDS011;59921;51.332;12.410;2023-03-26T12:11:46;2.60;;;1.50;;
55601;SDS011;59921;51.332;12.410;2023-03-26T12:14:18;2.63;;;1.50;;
55601;SDS011;59921;51.332;12.410;2023-03-26T12:19:40;2.70;;;1.55;;
55601;SDS011;59921;51.332;12.410;2023-03-26T12:27:50;3.25;;;1.75;;
55601;SDS011;59921;51.332;12.410;2023-03-26T12:30:24;3.17;;;1.60;;
55601;SDS011;59921;51.332;12.410;2023-03-26T12:32:54;3.53;;;1.55;;
55601;SDS011;59921;51.332;12.410;2023-03-26T12:35:25;2.60;;;1.50;;
55601;SDS011;59921;51.332;12.410;2023-03-26T12:37:53;4.22;;;1.90;;
55601;SDS011;59921;51.332;12.410;2023-03-26T12:43:01;3.15;;;1.75;;
55601;SDS011;59921;51.332;12.410;2023-03-26T12:45:30;3.20;;;1.90;;
55601;SDS011;59921;51.332;12.410;2023-03-26T12:48:01;2.80;;;1.70;;
55601;SDS011;59921;51.332;12.410;2023-03-26T12:50:31;1.90;;;1.50;;
55601;SDS011;59921;51.332;12.410;2023-03-26T12:53:36;2.78;;;1.50;;
55601;SDS011;59921;51.332;12.410;2023-03-26T12:56:21;2.50;;;1.58;;
55601;SDS011;59921;51.332;12.410;2023-03-26T12:59:10;3.40;;;1.80;;
55601;SDS011;59921;51.332;12.410;2023-03-26T13:01:54;2.47;;;1.50;;
55601;SDS011;59921;51.332;12.410;2023-03-26T13:08:05;3.00;;;1.75;;
55601;SDS011;59921;51.332;12.410;2023-03-26T13:20:13;3.53;;;1.95;;
55601;SDS011;59921;51.332;12.410;2023-03-26T13:28:49;2.22;;;1.50;;
55601;SDS011;59921;51.332;12.410;2023-03-26T13:38:05;2.78;;;1.60;;
55601;SDS011;59921;51.332;12.410;2023-03-26T13:51:20;2.30;;;1.58;;
55601;SDS011;59921;51.332;12.410;2023-03-26T13:53:53;3.95;;;2.03;;
55601;SDS011;59921;51.332;12.410;2023-03-26T13:56:22;3.03;;;1.75;;
55601;SDS011;59921;51.332;12.410;2023-03-26T13:58:57;3.67;;;1.80;;
55601;SDS011;59921;51.332;12.410;2023-03-26T14:01:31;3.35;;;2.10;;
55601;SDS011;59921;51.332;12.410;2023-03-26T14:04:05;3.65;;;1.92;;
55601;SDS011;59921;51.332;12.410;2023-03-26T14:09:47;3.17;;;2.00;;
55601;SDS011;59921;51.332;12.410;2023-03-26T14:15:14;4.03;;;2.10;;
55601;SDS011;59921;51.332;12.410;2023-03-26T14:31:31;3.42;;;2.00;;
55601;SDS011;59921;51.332;12.410;2023-03-26T14:42:01;3.35;;;2.15;;
55601;SDS011;59921;51.332;12.410;2023-03-26T14:47:51;2.85;;;2.00;;
55601;SDS011;59921;51.332;12.410;2023-03-26T14:53:24;3.28;;;1.95;;
55601;SDS011;59921;51.332;12.410;2023-03-26T15:08:01;3.90;;;2.20;;
55601;SDS011;59921;51.332;12.410;2023-03-26T15:10:40;3.58;;;2.10;;
55601;SDS011;59921;51.332;12.410;2023-03-26T15:13:26;3.53;;;2.13;;
55601;SDS011;59921;51.332;12.410;2023-03-26T15:24:58;3.33;;;2.00;;
55601;SDS011;59921;51.332;12.410;2023-03-26T15:35:49;4.43;;;2.50;;
55601;SDS011;59921;51.332;12.410;2023-03-26T15:53:16;3.85;;;2.35;;
55601;SDS011;59921;51.332;12.410;2023-03-26T15:56:25;3.47;;;2.33;;
55601;SDS011;59921;51.332;12.410;2023-03-26T16:04:55;4.55;;;2.45;;
55601;SDS011;59921;51.332;12.410;2023-03-26T16:12:53;3.78;;;2.40;;
55601;SDS011;59921;51.332;12.410;2023-03-26T16:15:37;3.95;;;2.53;;
55601;SDS011;59921;51.332;12.410;2023-03-26T16:20:47;3.75;;;2.35;;
55601;SDS011;59921;51.332;12.410;2023-03-26T16:28:33;4.18;;;2.42;;
55601;SDS011;59921;51.332;12.410;2023-03-26T16:31:42;4.03;;;2.38;;
55601;SDS011;59921;51.332;12.410;2023-03-26T16:36:30;4.38;;;2.50;;
55601;SDS011;59921;51.332;12.410;2023-03-26T16:41:30;3.83;;;2.40;;
55601;SDS011;59921;51.332;12.410;2023-03-26T16:46:41;3.03;;;2.13;;
55601;SDS011;59921;51.332;12.410;2023-03-26T17:08:23;3.17;;;2.25;;
55601;SDS011;59921;51.332;12.410;2023-03-26T17:16:38;3.70;;;2.50;;
55601;SDS011;59921;51.332;12.410;2023-03-26T17:21:55;4.53;;;2.10;;
55601;SDS011;59921;51.332;12.410;2023-03-26T17:24:34;4.07;;;2.20;;
55601;SDS011;59921;51.332;12.410;2023-03-26T17:35:49;3.53;;;2.13;;
55601;SDS011;59921;51.332;12.410;2023-03-26T17:43:31;4.07;;;2.25;;
55601;SDS011;59921;51.332;12.410;2023-03-26T17:49:02;3.35;;;1.92;;
55601;SDS011;59921;51.332;12.410;2023-03-26T17:54:18;3.40;;;2.00;;
55601;SDS011;59921;51.332;12.410;2023-03-26T17:56:47;3.45;;;2.15;;
55601;SDS011;59921;51.332;12.410;2023-03-26T17:59:19;3.50;;;1.90;;
55601;SDS011;59921;51.332;12.410;2023-03-26T18:01:50;3.00;;;1.90;;
55601;SDS011;59921;51.332;12.410;2023-03-26T18:04:20;2.90;;;1.92;;
55601;SDS011;59921;51.332;12.410;2023-03-26T18:18:39;3.03;;;1.83;;
55601;SDS011;59921;51.332;12.410;2023-03-26T18:21:14;2.40;;;1.70;;
55601;SDS011;59921;51.332;12.410;2023-03-26T18:23:45;2.72;;;1.92;;
55601;SDS011;59921;51.332;12.410;2023-03-26T18:26:14;3.10;;;1.95;;
55601;SDS011;59921;51.332;12.410;2023-03-26T18:28:51;2.58;;;1.90;;
55601;SDS011;59921;51.332;12.410;2023-03-26T18:31:22;3.13;;;1.80;;
55601;SDS011;59921;51.332;12.410;2023-03-26T18:33:54;3.05;;;1.95;;
55601;SDS011;59921;51.332;12.410;2023-03-26T18:36:24;3.33;;;2.15;;
55601;SDS011;59921;51.332;12.410;2023-03-26T18:38:55;2.63;;;1.90;;
55601;SDS011;59921;51.332;12.410;2023-03-26T18:41:26;3.55;;;2.28;;
55601;SDS011;59921;51.332;12.410;2023-03-26T18:43:59;2.92;;;1.80;;
55601;SDS011;59921;51.332;12.410;2023-03-26T18:46:26;3.30;;;2.10;;
55601;SDS011;59921;51.332;12.410;2023-03-26T18:48:52;3.22;;;2.10;;
55601;SDS011;59921;51.332;12.410;2023-03-26T18:51:19;3.40;;;2.28;;
55601;SDS011;59921;51.332;12.410;2023-03-26T18:53:59;3.53;;;2.42;;
55601;SDS011;59921;51.332;12.410;2023-03-26T18:56:33;3.30;;;2.22;;
55601;SDS011;59921;51.332;12.410;2023-03-26T19:01:55;3.30;;;2.22;;
55601;SDS011;59921;51.332;12.410;2023-03-26T19:04:24;3.70;;;2.50;;
55601;SDS011;59921;51.332;12.410;2023-03-26T19:06:51;3.22;;;2.35;;
55601;SDS011;59921;51.332;12.410;2023-03-26T19:09:18;3.58;;;2.47;;
55601;SDS011;59921;51.332;12.410;2023-03-26T19:11:47;3.88;;;2.40;;
55601;SDS011;59921;51.332;12.410;2023-03-26T19:14:18;3.22;;;2.45;;
55601;SDS011;59921;51.332;12.410;2023-03-26T19:16:45;2.80;;;2.15;;
55601;SDS011;59921;51.332;12.410;2023-03-26T19:19:18;2.97;;;2.30;;
55601;SDS011;59921;51.332;12.410;2023-03-26T19:21:47;3.78;;;2.40;;
55601;SDS011;59921;51.332;12.410;2023-03-26T19:24:14;3.80;;;2.33;;
55601;SDS011;59921;51.332;12.410;2023-03-26T19:26:42;3.40;;;2.08;;
55601;SDS011;59921;51.332;12.410;2023-03-26T19:29:10;3.45;;;2.50;;
55601;SDS011;59921;51.332;12.410;2023-03-26T19:31:39;3.60;;;2.60;;
55601;SDS011;59921;51.332;12.410;2023-03-26T19:36:38;3.38;;;2.30;;
55601;SDS011;59921;51.332;12.410;2023-03-26T19:39:47;3.08;;;2.28;;
55601;SDS011;59921;51.332;12.410;2023-03-26T19:42:16;3.25;;;2.40;;
55601;SDS011;59921;51.332;12.410;2023-03-26T19:44:44;4.10;;;2.60;;
55601;SDS011;59921;51.332;12.410;2023-03-26T19:47:20;3.20;;;2.40;;
55601;SDS011;59921;51.332;12.410;2023-03-26T19:49:57;3.63;;;2.40;;
55601;SDS011;59921;51.332;12.410;2023-03-26T19:52:32;3.30;;;2.40;;
55601;SDS011;59921;51.332;12.410;2023-03-26T19:57:34;3.70;;;2.70;;
55601;SDS011;59921;51.332;12.410;2023-03-26T20:00:03;3.30;;;2.40;;
55601;SDS011;59921;51.332;12.410;2023-03-26T20:02:40;3.30;;;2.38;;
55601;SDS011;59921;51.332;12.410;2023-03-26T20:05:19;2.80;;;2.22;;
55601;SDS011;59921;51.332;12.410;2023-03-26T20:07:50;2.75;;;2.30;;
55601;SDS011;59921;51.332;12.410;2023-03-26T20:10:16;3.65;;;2.40;;
55601;SDS011;59921;51.332;12.410;2023-03-26T20:12:42;3.60;;;2.50;;
55601;SDS011;59921;51.332;12.410;2023-03-26T20:15:12;3.22;;;2.20;;
55601;SDS011;59921;51.332;12.410;2023-03-26T20:17:39;3.83;;;2.58;;
55601;SDS011;59921;51.332;12.410;2023-03-26T20:20:09;3.25;;;2.38;;
55601;SDS011;59921;51.332;12.410;2023-03-26T20:22:36;3.25;;;2.20;;
55601;SDS011;59921;51.332;12.410;2023-03-26T20:25:24;3.10;;;2.30;;
55601;SDS011;59921;51.332;12.410;2023-03-26T20:27:50;3.50;;;2.33;;
55601;SDS011;59921;51.332;12.410;2023-03-26T20:30:19;3.30;;;2.42;;
55601;SDS011;59921;51.332;12.410;2023-03-26T20:32:44;3.47;;;2.30;;
55601;SDS011;59921;51.332;12.410;2023-03-26T20:35:14;3.00;;;2.25;;
55601;SDS011;59921;51.332;12.410;2023-03-26T20:37:48;3.30;;;2.33;;
55601;SDS011;59921;51.332;12.410;2023-03-26T20:40:14;3.15;;;2.35;;
55601;SDS011;59921;51.332;12.410;2023-03-26T20:42:41;2.78;;;2.22;;
55601;SDS011;59921;51.332;12.410;2023-03-26T20:45:19;3.83;;;2.40;;
55601;SDS011;59921;51.332;12.410;2023-03-26T20:47:46;3.05;;;2.20;;
55601;SDS011;59921;51.332;12.410;2023-03-26T20:50:17;3.38;;;2.53;;
55601;SDS011;59921;51.332;12.410;2023-03-26T20:52:47;3.17;;;2.33;;
55601;SDS011;59921;51.332;12.410;2023-03-26T20:55:13;3.05;;;2.20;;
55601;SDS011;59921;51.332;12.410;2023-03-26T20:57:45;4.00;;;2.72;;
55601;SDS011;59921;51.332;12.410;2023-03-26T21:00:11;3.42;;;2.55;;
55601;SDS011;59921;51.332;12.410;2023-03-26T21:02:44;3.13;;;2.40;;
55601;SDS011;59921;51.332;12.410;2023-03-26T21:05:10;3.30;;;2.50;;